createdAt,value
2022-12-04T00:01:42.134Z,84.30
2022-12-04T00:04:11.057Z,84.00
2022-12-04T00:06:39.734Z,80.20
2022-12-04T00:09:09.273Z,75.60
2022-12-04T00:11:38.526Z,76.70
2022-12-04T00:14:07.716Z,81.50
2022-12-04T00:16:36.605Z,81.20
2022-12-04T00:19:05.601Z,80.60
2022-12-04T00:21:34.605Z,76.60
2022-12-04T00:24:03.805Z,81.40
2022-12-04T00:26:32.378Z,81.00
2022-12-04T00:29:01.318Z,77.20
2022-12-04T00:31:31.275Z,82.00
2022-12-04T00:34:00.740Z,90.60
2022-12-04T00:36:30.808Z,77.50
2022-12-04T00:39:00.958Z,74.10
2022-12-04T00:41:31.921Z,76.80
2022-12-04T00:44:02.404Z,70.20
2022-12-04T00:46:31.194Z,71.80
2022-12-04T00:49:02.728Z,68.20
2022-12-04T00:51:31.631Z,67.30
2022-12-04T00:53:59.964Z,76.20
2022-12-04T00:56:29.862Z,79.60
2022-12-04T00:59:00.283Z,81.00
2022-12-04T01:01:29.922Z,75.00
2022-12-04T01:03:58.757Z,75.30
2022-12-04T01:06:30.517Z,75.60
2022-12-04T01:09:00.422Z,74.60
2022-12-04T01:11:30.170Z,64.20
2022-12-04T01:13:59.291Z,74.00
2022-12-04T01:16:32.193Z,75.50
2022-12-04T01:19:01.426Z,69.50
2022-12-04T01:21:29.969Z,66.80
2022-12-04T01:23:59.304Z,48.00
2022-12-04T01:26:27.774Z,67.60
2022-12-04T01:28:56.368Z,67.40
2022-12-04T01:31:25.116Z,53.30
2022-12-04T01:33:54.094Z,68.50
2022-12-04T01:36:25.195Z,70.60
2022-12-04T01:38:54.688Z,72.10
2022-12-04T01:41:29.026Z,62.80
2022-12-04T01:44:27.190Z,65.00
2022-12-04T01:47:00.890Z,62.70
2022-12-04T01:49:48.208Z,65.60
2022-12-04T01:52:21.934Z,67.10
2022-12-04T01:54:56.736Z,63.50
2022-12-04T01:57:29.519Z,65.60
2022-12-04T02:00:02.050Z,67.20
2022-12-04T02:02:35.739Z,64.10
2022-12-04T02:05:07.738Z,63.20
2022-12-04T02:07:39.131Z,63.90
2022-12-04T02:10:09.882Z,65.60
2022-12-04T02:13:02.610Z,67.50
2022-12-04T02:15:34.255Z,66.10
2022-12-04T02:18:23.833Z,72.30
2022-12-04T02:21:16.909Z,66.40
2022-12-04T02:24:26.848Z,59.70
2022-12-04T02:27:17.344Z,65.30
2022-12-04T02:30:05.688Z,62.20
2022-12-04T02:32:45.833Z,64.60
2022-12-04T02:35:24.071Z,62.30
2022-12-04T02:37:59.261Z,63.90
2022-12-04T02:41:09.351Z,68.10
2022-12-04T02:43:52.566Z,65.30
2022-12-04T02:46:28.803Z,62.10
2022-12-04T02:49:04.488Z,68.20
2022-12-04T02:51:38.327Z,58.90
2022-12-04T02:54:15.170Z,64.70
2022-12-04T02:56:45.558Z,61.90
2022-12-04T02:59:28.512Z,63.60
2022-12-04T03:02:00.455Z,68.20
2022-12-04T03:04:32.875Z,66.00
2022-12-04T03:07:09.939Z,65.00
2022-12-04T03:09:50.912Z,64.10
2022-12-04T03:12:49.299Z,62.50
2022-12-04T03:15:42.636Z,67.30
2022-12-04T03:18:35.210Z,61.40
2022-12-04T03:21:10.034Z,65.50
2022-12-04T03:23:47.013Z,70.30
2022-12-04T03:26:24.196Z,62.30
2022-12-04T03:29:10.905Z,61.20
2022-12-04T03:31:53.728Z,69.50
2022-12-04T03:34:32.997Z,70.80
2022-12-04T03:37:08.810Z,69.10
2022-12-04T03:39:52.621Z,64.30
2022-12-04T03:42:26.667Z,66.40
2022-12-04T03:45:01.295Z,67.00
2022-12-04T03:47:35.347Z,69.70
2022-12-04T03:50:21.804Z,65.80
2022-12-04T03:53:40.864Z,71.60
2022-12-04T03:56:28.914Z,71.00
2022-12-04T03:59:07.016Z,63.30
2022-12-04T04:01:41.068Z,71.60
2022-12-04T04:04:16.101Z,65.40
2022-12-04T04:06:53.238Z,67.10
2022-12-04T04:09:25.505Z,66.00
2022-12-04T04:12:20.320Z,64.40
2022-12-04T04:15:10.064Z,59.80
2022-12-04T04:18:06.329Z,57.80
2022-12-04T04:21:05.936Z,62.80
2022-12-04T04:23:59.307Z,56.10
2022-12-04T04:26:32.516Z,58.60
2022-12-04T04:29:00.771Z,65.10
2022-12-04T04:31:47.600Z,63.50
2022-12-04T04:34:39.152Z,68.80
2022-12-04T04:37:47.326Z,63.00
2022-12-04T04:40:36.075Z,62.00
2022-12-04T04:43:17.875Z,68.20
2022-12-04T04:45:54.337Z,68.00
2022-12-04T04:48:51.240Z,67.80
2022-12-04T04:51:20.688Z,65.00
2022-12-04T04:53:53.870Z,69.70
2022-12-04T04:56:22.929Z,74.80
2022-12-04T04:58:51.344Z,68.90
2022-12-04T05:01:23.212Z,67.00
2022-12-04T05:03:51.688Z,62.90
2022-12-04T05:06:20.016Z,55.70
2022-12-04T05:08:49.450Z,70.90
2022-12-04T05:11:18.153Z,61.70
2022-12-04T05:13:46.454Z,68.70
2022-12-04T05:16:16.589Z,64.80
2022-12-04T05:19:03.773Z,65.20
2022-12-04T05:21:32.985Z,64.00
2022-12-04T05:24:02.325Z,64.10
2022-12-04T05:26:30.542Z,66.10
2022-12-04T05:28:58.725Z,64.10
2022-12-04T05:31:27.264Z,66.40
2022-12-04T05:33:57.337Z,65.60
2022-12-04T05:36:25.605Z,68.20
2022-12-04T05:38:53.979Z,63.60
2022-12-04T05:41:22.463Z,66.20
2022-12-04T05:43:50.745Z,62.30
2022-12-04T05:46:19.057Z,60.90
2022-12-04T05:48:47.522Z,60.80
2022-12-04T05:51:15.773Z,67.60
2022-12-04T05:53:44.356Z,59.40
2022-12-04T05:56:12.749Z,62.20
2022-12-04T05:58:43.683Z,66.00
2022-12-04T06:01:21.365Z,73.30
2022-12-04T06:03:50.466Z,68.00
2022-12-04T06:06:22.666Z,63.80
2022-12-04T06:08:53.246Z,62.00
2022-12-04T06:11:31.170Z,63.20
2022-12-04T06:14:00.778Z,61.80
2022-12-04T06:16:32.480Z,64.90
2022-12-04T06:19:04.343Z,62.90
2022-12-04T06:21:34.728Z,55.40
2022-12-04T06:24:04.021Z,56.10
2022-12-04T06:26:32.493Z,60.50
2022-12-04T06:29:00.876Z,60.20
2022-12-04T06:31:30.361Z,58.70
2022-12-04T06:33:59.169Z,59.80
2022-12-04T06:36:27.668Z,66.60
2022-12-04T06:38:57.148Z,59.90
2022-12-04T06:41:27.681Z,66.90
2022-12-04T06:43:56.685Z,54.60
2022-12-04T06:46:27.695Z,63.90
2022-12-04T06:48:58.385Z,60.90
2022-12-04T06:51:32.974Z,62.80
2022-12-04T06:54:01.780Z,70.40
2022-12-04T06:56:32.819Z,69.00
2022-12-04T06:59:03.353Z,62.00
2022-12-04T07:01:34.052Z,60.50
2022-12-04T07:04:04.432Z,63.10
2022-12-04T07:06:36.334Z,64.80
2022-12-04T07:09:11.509Z,61.70
2022-12-04T07:11:41.113Z,63.40
2022-12-04T07:14:10.522Z,57.00
2022-12-04T07:16:42.235Z,61.90
2022-12-04T07:19:13.068Z,57.80
2022-12-04T07:21:43.118Z,58.10
2022-12-04T07:24:17.626Z,68.20
2022-12-04T07:26:46.332Z,61.80
2022-12-04T07:29:14.812Z,63.20
2022-12-04T07:31:44.759Z,58.60
2022-12-04T07:34:13.650Z,59.60
2022-12-04T07:36:42.307Z,63.10
2022-12-04T07:39:10.689Z,66.10
2022-12-04T07:41:39.272Z,60.10
2022-12-04T07:44:08.671Z,62.10
2022-12-04T07:46:37.352Z,66.10
2022-12-04T07:49:06.007Z,54.80
2022-12-04T07:51:34.625Z,66.30
2022-12-04T07:54:04.336Z,62.30
2022-12-04T07:56:33.784Z,66.10
2022-12-04T07:59:03.056Z,67.20
2022-12-04T08:01:32.389Z,61.40
2022-12-04T08:04:01.392Z,61.90
2022-12-04T08:06:33.287Z,59.60
2022-12-04T08:09:07.753Z,57.90
2022-12-04T08:11:39.288Z,60.50
2022-12-04T08:14:12.223Z,59.60
2022-12-04T08:16:41.146Z,63.70
2022-12-04T08:19:10.404Z,67.00
2022-12-04T08:21:39.086Z,60.80
2022-12-04T08:24:09.761Z,63.70
2022-12-04T08:26:40.645Z,66.60
2022-12-04T08:29:09.373Z,61.40
2022-12-04T08:31:38.175Z,64.30
2022-12-04T08:34:08.159Z,61.60
2022-12-04T08:36:37.334Z,61.40
2022-12-04T08:39:06.632Z,65.70
2022-12-04T08:41:35.528Z,58.10
2022-12-04T08:44:04.852Z,65.40
2022-12-04T08:46:34.321Z,64.30
2022-12-04T08:49:03.958Z,62.10
2022-12-04T08:51:38.487Z,65.50
2022-12-04T08:54:09.170Z,66.20
2022-12-04T08:56:38.211Z,61.70
2022-12-04T08:59:07.299Z,52.40
2022-12-04T09:01:36.041Z,61.10
2022-12-04T09:04:05.040Z,60.60
2022-12-04T09:06:33.546Z,59.90
2022-12-04T09:09:01.969Z,64.30
2022-12-04T09:11:32.615Z,75.60
2022-12-04T09:14:04.328Z,67.40
2022-12-04T09:16:33.585Z,62.80
2022-12-04T09:19:05.960Z,67.10
2022-12-04T09:21:38.093Z,67.70
2022-12-04T09:24:08.974Z,60.90
2022-12-04T09:26:41.072Z,62.20
2022-12-04T09:29:13.990Z,58.40
2022-12-04T09:31:45.268Z,55.10
2022-12-04T09:34:17.420Z,53.90
2022-12-04T09:36:50.763Z,58.60
2022-12-04T09:39:20.812Z,47.10
2022-12-04T09:42:23.774Z,49.50
2022-12-04T09:45:18.396Z,55.10
2022-12-04T09:47:58.607Z,41.90
2022-12-04T09:50:45.473Z,53.70
2022-12-04T09:53:31.083Z,44.80
2022-12-04T09:56:05.999Z,47.90
2022-12-04T09:58:56.355Z,47.10
2022-12-04T10:01:38.462Z,49.70
2022-12-04T10:04:11.365Z,52.10
2022-12-04T10:06:48.530Z,38.10
2022-12-04T10:09:48.073Z,47.40
2022-12-04T10:12:38.416Z,43.70
2022-12-04T10:15:15.558Z,54.30
2022-12-04T10:18:06.078Z,50.40
2022-12-04T10:20:53.380Z,42.80
2022-12-04T10:23:30.213Z,35.20
2022-12-04T10:26:02.819Z,33.90
2022-12-04T10:28:37.747Z,47.00
2022-12-04T10:31:14.258Z,42.60
2022-12-04T10:34:05.271Z,38.00
2022-12-04T10:36:36.893Z,47.70
2022-12-04T10:39:25.814Z,39.60
2022-12-04T10:41:59.936Z,40.60
2022-12-04T10:44:32.758Z,37.30
2022-12-04T10:47:06.794Z,46.50
2022-12-04T10:49:39.163Z,36.60
2022-12-04T10:52:17.922Z,48.10
2022-12-04T10:54:56.369Z,47.20
2022-12-04T10:57:43.869Z,47.90
2022-12-04T11:00:30.914Z,45.50
2022-12-04T11:03:10.339Z,44.40
2022-12-04T11:06:10.590Z,50.50
2022-12-04T11:08:50.976Z,43.50
2022-12-04T11:11:28.415Z,44.50
2022-12-04T11:14:15.946Z,43.10
2022-12-04T11:17:02.640Z,48.00
2022-12-04T11:19:37.526Z,51.80
2022-12-04T11:22:19.139Z,50.20
2022-12-04T11:24:58.297Z,30.30
2022-12-04T11:27:38.082Z,51.00
2022-12-04T11:30:20.415Z,46.00
2022-12-04T11:32:55.734Z,46.60
2022-12-04T11:35:32.550Z,48.70
2022-12-04T11:38:17.979Z,45.90
2022-12-04T11:40:58.729Z,44.30
2022-12-04T11:43:33.364Z,46.70
2022-12-04T11:46:10.663Z,45.70
2022-12-04T11:48:46.690Z,43.60
2022-12-04T11:51:15.906Z,47.90
2022-12-04T11:54:22.672Z,45.40
2022-12-04T11:57:24.321Z,49.70
2022-12-04T12:00:03.164Z,49.50
2022-12-04T12:03:06.975Z,47.60
2022-12-04T12:05:39.580Z,44.00
2022-12-04T12:08:34.765Z,43.20
2022-12-04T12:11:17.039Z,43.60
2022-12-04T12:13:52.746Z,42.30
2022-12-04T12:19:34.401Z,33.60
2022-12-04T12:22:15.592Z,48.00
2022-12-04T12:25:03.114Z,39.90
2022-12-04T12:28:02.455Z,48.30
2022-12-04T12:30:44.510Z,45.00
2022-12-04T12:33:33.435Z,41.90
2022-12-04T12:36:11.227Z,51.50
2022-12-04T12:38:56.772Z,43.70
2022-12-04T12:41:37.665Z,48.80
2022-12-04T12:44:28.122Z,41.20
2022-12-04T12:47:10.576Z,40.10
2022-12-04T12:49:54.491Z,40.00
2022-12-04T12:52:30.263Z,53.50
2022-12-04T12:55:23.600Z,48.90
2022-12-04T12:58:17.741Z,48.30
2022-12-04T13:01:26.867Z,41.10
2022-12-04T13:04:03.776Z,50.30
2022-12-04T13:06:45.096Z,46.40
2022-12-04T13:09:28.205Z,47.80
2022-12-04T13:12:08.835Z,51.80
2022-12-04T13:14:39.063Z,50.10
2022-12-04T13:17:21.389Z,48.50
2022-12-04T13:19:55.479Z,46.70
2022-12-04T13:22:31.075Z,44.30
2022-12-04T13:25:10.006Z,43.30
2022-12-04T13:28:06.062Z,54.80
2022-12-04T13:30:57.031Z,44.60
2022-12-04T13:33:50.905Z,38.50
2022-12-04T13:36:46.842Z,51.90
2022-12-04T13:39:27.077Z,50.20
2022-12-04T13:42:02.494Z,50.60
2022-12-04T13:44:34.291Z,49.70
2022-12-04T13:47:12.027Z,51.40
2022-12-04T13:49:46.299Z,52.60
2022-12-04T13:52:37.516Z,50.40
2022-12-04T13:55:26.600Z,50.70
2022-12-04T13:58:11.967Z,48.30
2022-12-04T14:00:45.210Z,46.80
2022-12-04T14:03:29.602Z,52.40
2022-12-04T14:06:05.551Z,41.60
2022-12-04T14:08:45.116Z,55.40
2022-12-04T14:11:18.408Z,39.10
2022-12-04T14:13:49.720Z,46.10
2022-12-04T14:16:25.986Z,48.50
2022-12-04T14:19:02.573Z,42.00
2022-12-04T14:21:45.616Z,42.10
2022-12-04T14:24:37.604Z,54.20
2022-12-04T14:27:35.403Z,47.70
2022-12-04T14:30:07.013Z,38.60
2022-12-04T14:32:37.286Z,55.80
2022-12-04T14:35:14.232Z,51.50
2022-12-04T14:38:08.266Z,61.90
2022-12-04T14:40:48.627Z,50.10
2022-12-04T14:43:24.684Z,57.20
2022-12-04T14:46:26.653Z,49.10
2022-12-04T14:49:15.899Z,43.60
2022-12-04T14:52:46.658Z,61.00
2022-12-04T14:55:27.753Z,47.00
2022-12-04T14:58:30.897Z,59.60
2022-12-04T15:01:22.658Z,46.20
2022-12-04T15:03:58.362Z,43.80
2022-12-04T15:06:30.036Z,44.90
2022-12-04T15:09:20.616Z,51.40
2022-12-04T15:12:17.883Z,57.40
2022-12-04T15:14:50.051Z,57.80
2022-12-04T15:17:19.247Z,32.80
2022-12-04T15:19:47.991Z,37.40
2022-12-04T15:22:28.595Z,57.50
2022-12-04T15:24:58.235Z,53.90
2022-12-04T15:27:32.691Z,60.40
2022-12-04T15:30:03.865Z,35.30
2022-12-04T15:32:33.415Z,54.30
2022-12-04T15:35:09.338Z,54.60
2022-12-04T15:37:38.539Z,46.40
2022-12-04T15:40:08.907Z,42.70
2022-12-04T15:42:38.614Z,41.00
2022-12-04T15:45:11.381Z,26.90
2022-12-04T15:47:44.223Z,44.90
2022-12-04T15:50:17.114Z,53.90
2022-12-04T15:52:56.063Z,25.10
2022-12-04T15:55:26.455Z,53.10
2022-12-04T15:58:16.826Z,50.80
2022-12-04T16:00:46.328Z,41.80
2022-12-04T16:03:28.690Z,69.20
2022-12-04T16:06:18.422Z,50.60
2022-12-04T16:09:13.093Z,59.20
2022-12-04T16:11:43.355Z,60.30
2022-12-04T16:14:12.719Z,53.30
2022-12-04T16:16:48.059Z,65.70
2022-12-04T16:19:29.924Z,51.30
2022-12-04T16:22:00.907Z,54.00
2022-12-04T16:24:30.393Z,40.30
2022-12-04T16:27:01.387Z,56.70
2022-12-04T16:29:32.239Z,42.10
2022-12-04T16:32:03.641Z,53.90
2022-12-04T16:34:32.735Z,52.20
2022-12-04T16:37:01.427Z,37.80
2022-12-04T16:39:30.546Z,51.60
2022-12-04T16:41:59.594Z,52.50
2022-12-04T16:44:27.980Z,64.10
2022-12-04T16:46:56.742Z,45.40
2022-12-04T16:49:25.671Z,44.90
2022-12-04T16:51:54.451Z,27.30
2022-12-04T16:54:23.235Z,53.00
2022-12-04T16:56:52.113Z,45.20
2022-12-04T16:59:21.591Z,46.60
2022-12-04T17:01:51.861Z,59.60
2022-12-04T17:04:20.715Z,42.00
2022-12-04T17:06:50.580Z,44.60
2022-12-04T17:09:21.054Z,52.00
2022-12-04T17:11:51.433Z,64.60
2022-12-04T17:14:20.925Z,29.50
2022-12-04T17:16:52.606Z,38.30
2022-12-04T17:19:22.072Z,34.60
2022-12-04T17:21:54.738Z,32.70
2022-12-04T17:24:26.449Z,53.50
2022-12-04T17:26:55.639Z,30.80
2022-12-04T17:29:26.007Z,68.20
2022-12-04T17:31:56.379Z,56.90
2022-12-04T17:34:26.716Z,69.50
2022-12-04T17:36:56.778Z,50.70
2022-12-04T17:39:26.519Z,63.50
2022-12-04T17:41:56.041Z,89.70
2022-12-04T17:44:25.136Z,61.50
2022-12-04T17:46:55.260Z,81.40
2022-12-04T17:49:24.177Z,51.90
2022-12-04T17:51:53.863Z,65.10
2022-12-04T17:54:24.282Z,70.60
2022-12-04T17:56:57.773Z,68.80
2022-12-04T17:59:28.408Z,46.90
2022-12-04T18:01:58.067Z,70.80
2022-12-04T18:04:27.307Z,75.40
2022-12-04T18:06:57.546Z,70.20
2022-12-04T18:09:27.354Z,57.90
2022-12-04T18:11:58.959Z,60.20
2022-12-04T18:14:32.660Z,68.80
2022-12-04T18:17:04.797Z,79.00
2022-12-04T18:19:35.038Z,53.10
2022-12-04T18:22:05.004Z,76.50
2022-12-04T18:24:35.117Z,64.20
2022-12-04T18:27:05.978Z,62.50
2022-12-04T18:29:35.229Z,71.50
2022-12-04T18:32:04.937Z,52.40
2022-12-04T18:34:34.300Z,87.00
2022-12-04T18:37:04.512Z,73.00
2022-12-04T18:39:34.249Z,65.00
2022-12-04T18:42:03.198Z,86.20
2022-12-04T18:44:32.115Z,69.70
2022-12-04T18:47:03.264Z,71.40
2022-12-04T18:49:32.729Z,73.00
2022-12-04T18:52:02.146Z,58.40
2022-12-04T18:54:31.559Z,44.00
2022-12-04T18:57:01.013Z,69.90
2022-12-04T18:59:30.369Z,73.00
2022-12-04T19:01:59.171Z,67.90
2022-12-04T19:04:27.919Z,55.60
2022-12-04T19:06:56.846Z,75.00
2022-12-04T19:10:02.122Z,64.30
2022-12-04T19:12:17.626Z,67.20
2022-12-04T19:14:46.030Z,50.60
2022-12-04T19:17:15.620Z,51.70
2022-12-04T19:19:44.448Z,65.50
2022-12-04T19:22:14.625Z,56.40
2022-12-04T19:24:43.906Z,61.40
2022-12-04T19:27:13.576Z,51.70
2022-12-04T19:29:43.807Z,58.40
2022-12-04T19:32:13.247Z,66.10
2022-12-04T19:34:42.883Z,78.20
2022-12-04T19:37:15.565Z,74.60
2022-12-04T19:39:45.578Z,62.00
2022-12-04T19:42:14.101Z,58.90
2022-12-04T19:44:50.352Z,73.80
2022-12-04T19:47:20.293Z,75.20
2022-12-04T19:49:53.038Z,70.20
2022-12-04T19:52:26.257Z,66.10
2022-12-04T19:54:59.439Z,61.40
2022-12-04T19:57:31.307Z,58.40
2022-12-04T20:00:04.337Z,56.70
2022-12-04T20:03:50.665Z,41.40
2022-12-04T20:12:28.795Z,62.30
2022-12-04T20:15:48.197Z,43.00
2022-12-04T20:22:28.420Z,55.70
2022-12-04T20:35:30.985Z,53.50
2022-12-04T20:38:17.809Z,45.10
2022-12-04T20:40:46.683Z,47.40
2022-12-04T20:43:15.700Z,37.60
2022-12-04T20:45:44.658Z,44.00
2022-12-04T20:48:13.655Z,45.20
2022-12-04T20:50:46.678Z,57.90
2022-12-04T20:53:17.001Z,43.50
2022-12-04T20:55:57.822Z,27.70
2022-12-04T20:58:28.881Z,50.10
2022-12-04T21:01:08.318Z,60.90
2022-12-04T21:03:39.399Z,49.20
2022-12-04T21:06:35.188Z,42.80
2022-12-04T21:09:16.426Z,51.90
2022-12-04T21:11:49.690Z,49.00
2022-12-04T21:14:42.303Z,44.20
2022-12-04T21:17:17.177Z,50.90
2022-12-04T21:19:47.972Z,44.80
2022-12-04T21:22:18.669Z,51.40
2022-12-04T21:24:48.169Z,44.00
2022-12-04T21:27:21.217Z,55.10
2022-12-04T21:29:51.526Z,55.70
2022-12-04T21:32:20.937Z,55.30
2022-12-04T21:34:50.710Z,57.90
2022-12-04T21:37:21.211Z,62.80
2022-12-04T21:39:51.112Z,58.80
2022-12-04T21:42:33.134Z,57.50
2022-12-04T21:45:06.313Z,45.20
2022-12-04T21:47:36.376Z,49.10
2022-12-04T21:50:06.206Z,42.70
2022-12-04T21:52:34.803Z,60.00
2022-12-04T21:55:03.572Z,55.80
2022-12-04T21:57:32.026Z,55.90
2022-12-04T22:00:00.863Z,34.70
2022-12-04T22:02:29.647Z,49.70
2022-12-04T22:04:58.524Z,48.00
2022-12-04T22:07:27.998Z,57.90
2022-12-04T22:09:57.212Z,43.20
2022-12-04T22:12:48.447Z,49.30
2022-12-04T22:15:16.981Z,53.30
2022-12-04T22:17:45.496Z,52.80
2022-12-04T22:20:16.817Z,52.40
2022-12-04T22:22:46.145Z,43.80
2022-12-04T22:25:15.046Z,42.80
2022-12-04T22:27:43.843Z,38.70
2022-12-04T22:30:13.649Z,23.90
2022-12-04T22:32:43.908Z,48.70
2022-12-04T22:35:13.880Z,55.70
2022-12-04T22:37:44.540Z,42.50
2022-12-04T22:40:15.346Z,39.70
2022-12-04T22:42:44.653Z,47.70
2022-12-04T22:45:14.057Z,55.20
2022-12-04T22:47:42.429Z,53.30
2022-12-04T22:50:12.174Z,56.40
2022-12-04T22:52:40.827Z,53.20
2022-12-04T22:55:10.366Z,63.90
2022-12-04T22:57:38.804Z,59.60
2022-12-04T23:00:09.477Z,50.00
2022-12-04T23:02:37.778Z,30.90
2022-12-04T23:05:07.076Z,29.90
2022-12-04T23:07:35.418Z,56.50
2022-12-04T23:10:05.332Z,53.10
2022-12-04T23:12:34.001Z,47.40
2022-12-04T23:15:03.261Z,40.50
2022-12-04T23:17:32.093Z,57.50
2022-12-04T23:20:00.454Z,48.80
2022-12-04T23:22:28.849Z,70.50
2022-12-04T23:24:57.116Z,54.50
2022-12-04T23:27:25.606Z,66.90
2022-12-04T23:29:54.147Z,54.20
2022-12-04T23:32:22.567Z,58.00
2022-12-04T23:34:53.235Z,57.10
2022-12-04T23:37:22.239Z,26.00
2022-12-04T23:39:50.876Z,48.10
2022-12-04T23:42:19.254Z,59.40
2022-12-04T23:44:47.622Z,42.30
2022-12-04T23:47:16.293Z,58.20
2022-12-04T23:49:45.005Z,46.90
2022-12-04T23:52:13.219Z,55.00
2022-12-04T23:54:41.750Z,47.30
2022-12-04T23:57:10.559Z,46.90
2022-12-04T23:59:38.928Z,42.40
